Time;durP1;ratioP1;P1;durP2;ratioP2;P2;SDS_P1;SDS_P2;PMS_P1;PMS_P2;Temp;Humidity;BMP_temperature;BMP_pressure;BME280_temperature;BME280_humidity;BME280_pressure;Samples;Min_cycle;Max_cycle;Signal;HPM_P1;HPM_P2
2021/12/27 00:00:44;;;;;;;9.02;3.85;;;;;;;1.15;100.00;98732.72;4966415;28;20027;-81
2021/12/27 00:03:11;;;;;;;38.63;7.75;;;;;;;1.23;100.00;98710.72;4948054;28;20046;-81
2021/12/27 00:05:36;;;;;;;35.20;11.68;;;;;;;1.34;100.00;98714.84;4952022;28;20521;-81
2021/12/27 00:08:02;;;;;;;44.75;10.18;;;;;;;1.47;100.00;98712.50;4943762;28;20045;-81
2021/12/27 00:10:28;;;;;;;35.25;11.07;;;;;;;1.61;100.00;98714.44;4923353;28;20567;-81
2021/12/27 00:12:55;;;;;;;28.00;7.22;;;;;;;1.79;100.00;98716.91;4960692;28;20054;-81
2021/12/27 00:15:20;;;;;;;21.23;5.80;;;;;;;1.91;100.00;98709.44;4948089;28;20473;-80
2021/12/27 00:17:48;;;;;;;14.05;5.88;;;;;;;1.95;100.00;98703.59;4950162;28;20031;-81
2021/12/27 00:20:15;;;;;;;3.80;2.33;;;;;;;2.02;100.00;98706.41;4948212;28;20050;-81
2021/12/27 00:22:42;;;;;;;22.90;5.78;;;;;;;2.05;100.00;98697.28;4944985;28;20096;-81
2021/12/27 00:25:09;;;;;;;16.33;5.72;;;;;;;2.12;100.00;98704.38;4968373;28;20034;-81
2021/12/27 00:27:35;;;;;;;7.82;4.47;;;;;;;2.23;100.00;98687.25;4948142;28;20023;-80
2021/12/27 00:30:00;;;;;;;8.07;3.97;;;;;;;2.30;100.00;98684.72;4961975;28;20026;-81
2021/12/27 00:32:26;;;;;;;11.95;5.30;;;;;;;2.35;100.00;98691.16;4933567;28;20034;-81
2021/12/27 00:34:52;;;;;;;6.38;5.25;;;;;;;2.44;100.00;98678.69;4963684;28;20045;-81
2021/12/27 00:37:18;;;;;;;5.68;5.13;;;;;;;2.73;100.00;98677.19;4949386;28;20574;-80
2021/12/27 00:39:43;;;;;;;8.05;4.97;;;;;;;3.03;100.00;98664.84;4932178;28;20035;-82
2021/12/27 00:42:09;;;;;;;4.80;3.30;;;;;;;3.12;100.00;98654.97;4947825;28;20031;-81
2021/12/27 00:44:35;;;;;;;5.97;3.17;;;;;;;3.28;100.00;98662.78;4957315;28;20461;-81
2021/12/27 00:47:01;;;;;;;7.28;3.33;;;;;;;3.47;100.00;98669.44;4948425;28;20064;-81
2021/12/27 00:49:26;;;;;;;6.80;4.18;;;;;;;3.40;100.00;98656.03;4963289;28;20126;-81
2021/12/27 00:51:52;;;;;;;5.70;3.55;;;;;;;3.23;100.00;98654.56;4947800;28;20126;-81
2021/12/27 00:54:18;;;;;;;6.32;4.13;;;;;;;2.98;100.00;98645.97;4966847;28;20034;-81
2021/12/27 00:56:44;;;;;;;6.30;3.97;;;;;;;2.83;100.00;98652.06;4966852;28;20421;-82
2021/12/27 00:59:09;;;;;;;5.93;2.85;;;;;;;2.82;100.00;98639.78;4967455;28;20030;-82
2021/12/27 01:01:36;;;;;;;4.72;3.50;;;;;;;2.89;100.00;98637.25;4983708;28;20026;-82
2021/12/27 01:04:02;;;;;;;8.63;2.67;;;;;;;2.87;100.00;98618.03;4952155;28;20399;-83
2021/12/27 01:06:28;;;;;;;1.92;1.63;;;;;;;2.96;100.00;98619.59;4950453;28;20034;-82
2021/12/27 01:08:53;;;;;;;5.60;3.45;;;;;;;3.16;100.00;98624.41;4932767;28;20045;-82
2021/12/27 01:11:38;;;;;;;6.35;3.60;;;;;;;3.24;100.00;98606.56;4932415;28;20026;-82
2021/12/27 01:14:11;;;;;;;8.10;2.83;;;;;;;3.51;100.00;98613.06;4932676;28;20031;-82
2021/12/27 01:16:38;;;;;;;9.43;3.15;;;;;;;3.69;100.00;98609.22;4962383;28;20055;-81
2021/12/27 01:19:05;;;;;;;4.05;2.20;;;;;;;3.80;100.00;98607.94;4952194;28;20037;-81
2021/12/27 01:21:31;;;;;;;6.25;2.72;;;;;;;3.86;100.00;98605.34;4960205;28;20462;-81
2021/12/27 01:23:56;;;;;;;4.80;2.72;;;;;;;3.89;100.00;98598.84;4943579;28;20031;-81
2021/12/27 01:26:25;;;;;;;5.38;2.38;;;;;;;3.88;100.00;98574.09;4965797;28;20077;-81
2021/12/27 01:28:51;;;;;;;4.60;3.05;;;;;;;3.99;100.00;98591.41;4966392;28;20027;-81
2021/12/27 01:31:17;;;;;;;4.55;3.70;;;;;;;4.04;100.00;98575.72;4953388;28;20062;-80
2021/12/27 01:33:44;;;;;;;3.55;2.72;;;;;;;4.13;100.00;98576.44;4951557;28;20422;-81
2021/12/27 01:36:10;;;;;;;6.93;2.38;;;;;;;4.20;100.00;98569.34;4938687;28;20481;-81
2021/12/27 01:38:37;;;;;;;5.00;1.50;;;;;;;4.23;100.00;98560.16;4952166;28;20058;-82
2021/12/27 01:41:04;;;;;;;5.40;3.35;;;;;;;4.35;100.00;98562.13;4969898;28;20097;-80
2021/12/27 01:43:32;;;;;;;5.35;2.78;;;;;;;4.39;100.00;98558.09;4953855;28;20094;-81
2021/12/27 01:46:04;;;;;;;10.35;4.20;;;;;;;4.34;100.00;98535.69;4965171;28;20027;-81
2021/12/27 01:48:33;;;;;;;13.43;5.28;;;;;;;4.39;100.00;98547.44;4952163;28;20121;-81
2021/12/27 01:51:00;;;;;;;6.28;4.20;;;;;;;4.40;100.00;98548.28;4973445;28;20047;-81
2021/12/27 01:53:28;;;;;;;7.00;4.35;;;;;;;4.43;100.00;98539.91;4945681;28;20050;-81
2021/12/27 01:55:55;;;;;;;14.70;5.25;;;;;;;4.41;100.00;98532.09;4954883;28;20057;-81
2021/12/27 01:58:21;;;;;;;10.23;2.90;;;;;;;4.36;100.00;98520.38;4951645;28;20050;-81
2021/12/27 02:00:52;;;;;;;14.43;5.03;;;;;;;4.28;100.00;98518.66;4938963;28;20045;-81
2021/12/27 02:03:20;;;;;;;10.77;5.68;;;;;;;4.08;100.00;98528.31;4952281;28;20089;-81
2021/12/27 02:05:46;;;;;;;6.78;4.47;;;;;;;3.68;100.00;98502.09;4953021;28;20039;-81
2021/12/27 02:08:12;;;;;;;2.08;1.25;;;;;;;3.65;100.00;98504.28;4970645;28;20039;-81
2021/12/27 02:10:39;;;;;;;9.30;3.35;;;;;;;3.61;100.00;98517.16;4965316;28;20090;-82
2021/12/27 02:13:05;;;;;;;1.02;1.02;;;;;;;3.33;100.00;98502.88;4967803;28;20063;-82
2021/12/27 02:15:31;;;;;;;3.60;1.35;;;;;;;3.29;100.00;98513.06;4963315;28;20054;-81
2021/12/27 02:17:57;;;;;;;1.13;1.08;;;;;;;3.20;100.00;98508.84;4954749;28;20501;-81
2021/12/27 02:20:25;;;;;;;3.95;2.65;;;;;;;3.20;100.00;98511.50;4949679;28;20046;-80
2021/12/27 02:22:55;;;;;;;3.08;1.00;;;;;;;2.99;100.00;98507.75;4965784;28;20111;-80
2021/12/27 02:25:21;;;;;;;2.60;2.00;;;;;;;2.85;100.00;98501.41;4949346;28;20039;-81
2021/12/27 02:27:47;;;;;;;2.85;2.35;;;;;;;2.70;100.00;98497.94;4969450;28;20067;-81
2021/12/27 02:30:17;;;;;;;2.78;1.77;;;;;;;2.41;100.00;98491.56;4964537;28;20101;-81
2021/12/27 02:32:45;;;;;;;2.45;1.85;;;;;;;2.37;100.00;98498.22;4936806;28;20034;-81
2021/12/27 02:35:33;;;;;;;4.00;1.88;;;;;;;2.32;100.00;98489.97;4968290;28;20049;-81
2021/12/27 02:38:00;;;;;;;4.00;1.70;;;;;;;2.22;100.00;98485.91;4964393;28;20069;-82
2021/12/27 02:40:28;;;;;;;3.03;1.85;;;;;;;2.04;100.00;98476.47;4953859;28;20441;-80
2021/12/27 02:43:00;;;;;;;1.48;1.38;;;;;;;1.86;100.00;98474.09;4947017;28;20061;-82
2021/12/27 02:45:28;;;;;;;8.00;1.98;;;;;;;1.78;100.00;98460.09;4951761;28;20469;-80
2021/12/27 02:47:56;;;;;;;2.13;1.25;;;;;;;1.82;100.00;98464.00;4935869;28;20139;-80
2021/12/27 02:50:23;;;;;;;3.70;2.65;;;;;;;1.70;100.00;98445.88;4953623;28;20444;-80
2021/12/27 02:52:49;;;;;;;1.30;1.25;;;;;;;1.58;100.00;98417.31;4946961;28;20058;-82
2021/12/27 02:55:16;;;;;;;2.95;1.00;;;;;;;1.75;100.00;98446.19;4971130;28;20068;-81
2021/12/27 02:57:47;;;;;;;1.10;1.08;;;;;;;1.80;100.00;98450.97;4935895;28;20049;-81
2021/12/27 03:00:35;;;;;;;0.50;0.50;;;;;;;1.78;100.00;98449.47;4955840;28;20101;-81
2021/12/27 03:03:01;;;;;;;7.00;1.58;;;;;;;1.74;100.00;98443.69;4939358;28;20043;-81
2021/12/27 03:05:28;;;;;;;2.10;1.67;;;;;;;1.79;100.00;98437.88;4951592;28;20469;-81
2021/12/27 03:07:55;;;;;;;0.95;0.90;;;;;;;1.87;100.00;98428.03;4946206;28;20038;-80
2021/12/27 03:10:23;;;;;;;1.38;1.25;;;;;;;1.75;100.00;98411.72;4967543;28;20027;-81
2021/12/27 03:12:50;;;;;;;2.17;1.20;;;;;;;1.86;100.00;98417.63;4966335;28;20039;-81
2021/12/27 03:15:17;;;;;;;0.50;0.50;;;;;;;1.80;100.00;98423.63;4953095;28;20039;-81
2021/12/27 03:17:44;;;;;;;2.20;1.38;;;;;;;1.74;100.00;98418.00;4959506;28;20442;-81
2021/12/27 03:20:11;;;;;;;1.80;1.23;;;;;;;1.70;100.00;98416.75;4947977;28;20071;-81
2021/12/27 03:22:37;;;;;;;3.63;2.33;;;;;;;1.64;100.00;98412.16;4949790;28;20031;-81
2021/12/27 03:25:04;;;;;;;1.77;0.95;;;;;;;1.50;100.00;98404.94;4952051;28;20053;-81
2021/12/27 03:27:30;;;;;;;1.90;1.80;;;;;;;1.46;100.00;98406.31;4955076;28;20038;-81
2021/12/27 03:29:56;;;;;;;0.40;0.40;;;;;;;1.40;100.00;98412.28;4962921;28;20034;-81
2021/12/27 03:32:22;;;;;;;1.08;1.08;;;;;;;1.40;100.00;98383.16;4950169;28;20062;-81
2021/12/27 03:34:57;;;;;;;2.25;2.05;;;;;;;1.70;100.00;98406.16;4964351;28;20030;-81
2021/12/27 03:37:24;;;;;;;0.40;0.40;;;;;;;1.93;100.00;98413.25;4937310;28;20035;-80
2021/12/27 03:39:50;;;;;;;0.68;0.68;;;;;;;2.10;100.00;98406.81;4963783;28;20023;-81
2021/12/27 03:42:16;;;;;;;1.48;1.38;;;;;;;2.27;100.00;98404.00;4965330;28;20027;-81
2021/12/27 03:44:43;;;;;;;1.92;1.45;;;;;;;2.41;100.00;98385.47;4965883;28;20105;-83
2021/12/27 03:47:10;;;;;;;2.05;1.33;;;;;;;2.66;100.00;98408.25;4948453;28;20204;-81
2021/12/27 03:49:36;;;;;;;1.58;1.38;;;;;;;2.73;100.00;98401.22;4948264;28;22330;-81
2021/12/27 03:52:02;;;;;;;2.28;0.90;;;;;;;2.74;100.00;98387.75;4964645;28;20034;-81
2021/12/27 03:54:28;;;;;;;0.52;0.52;;;;;;;2.82;100.00;98390.31;4964113;28;20461;-81
2021/12/27 03:56:54;;;;;;;1.08;1.08;;;;;;;2.84;100.00;98379.53;4930701;28;20397;-81
2021/12/27 04:01:45;;;;;;;3.03;2.72;;;;;;;3.00;100.00;98376.66;4945124;28;20129;-80
2021/12/27 04:04:10;;;;;;;0.80;0.80;;;;;;;3.00;100.00;98371.34;4948416;28;20038;-80
2021/12/27 04:06:36;;;;;;;0.70;0.70;;;;;;;3.07;100.00;98366.94;4963845;28;20351;-81
2021/12/27 04:09:02;;;;;;;2.22;1.33;;;;;;;3.12;100.00;98368.22;4948580;28;20057;-81
2021/12/27 04:11:28;;;;;;;2.22;1.17;;;;;;;3.18;100.00;98370.13;4964289;28;20050;-81
2021/12/27 04:13:56;;;;;;;1.85;1.27;;;;;;;3.20;100.00;98366.28;4982300;28;20366;-81
2021/12/27 04:16:22;;;;;;;2.35;1.58;;;;;;;3.21;100.00;98361.78;4936266;28;20364;-81
2021/12/27 04:18:48;;;;;;;3.47;1.63;;;;;;;3.23;100.00;98349.97;4936389;28;20042;-81
2021/12/27 04:21:14;;;;;;;1.35;1.13;;;;;;;3.20;100.00;98341.53;4962066;28;20429;-81
2021/12/27 04:23:39;;;;;;;2.42;1.38;;;;;;;3.14;100.00;98337.00;4946297;28;20130;-80
2021/12/27 04:26:05;;;;;;;0.57;0.57;;;;;;;3.13;100.00;98338.00;4951582;28;20030;-81
2021/12/27 04:28:31;;;;;;;3.38;1.83;;;;;;;3.14;100.00;98331.69;4933147;28;20098;-82
2021/12/27 04:30:57;;;;;;;0.55;0.55;;;;;;;3.14;100.00;98331.69;4949963;28;20034;-81
2021/12/27 04:33:23;;;;;;;0.70;0.70;;;;;;;3.04;100.00;98314.22;4968503;28;20322;-81
2021/12/27 04:35:48;;;;;;;1.40;1.00;;;;;;;3.11;100.00;98318.78;4948606;28;20445;-81
2021/12/27 04:38:14;;;;;;;1.10;1.00;;;;;;;3.16;100.00;98325.16;4961343;28;20031;-81
2021/12/27 04:40:42;;;;;;;0.43;0.43;;;;;;;3.16;100.00;98322.50;4951118;28;20388;-81
2021/12/27 04:43:11;;;;;;;1.38;0.80;;;;;;;3.22;100.00;98326.25;4948900;28;20045;-81
2021/12/27 04:45:37;;;;;;;0.70;0.70;;;;;;;3.21;100.00;98319.31;4967962;28;20050;-80
2021/12/27 04:48:03;;;;;;;0.65;0.65;;;;;;;3.23;100.00;98318.09;4950606;28;20038;-80
2021/12/27 04:50:30;;;;;;;1.33;1.25;;;;;;;3.29;100.00;98324.50;4966829;28;20121;-80
2021/12/27 04:52:55;;;;;;;0.80;0.80;;;;;;;3.24;100.00;98306.47;4960724;28;20027;-81
2021/12/27 04:55:23;;;;;;;2.65;1.27;;;;;;;3.30;100.00;98303.03;4941585;28;20084;-81
2021/12/27 04:57:49;;;;;;;0.57;0.57;;;;;;;3.31;100.00;98293.25;4976793;28;20038;-80
2021/12/27 05:00:15;;;;;;;3.03;1.10;;;;;;;3.23;100.00;98274.81;4954706;28;20069;-81
2021/12/27 05:02:40;;;;;;;0.50;0.50;;;;;;;3.30;100.00;98271.16;4927197;28;20027;-81
2021/12/27 05:05:06;;;;;;;1.08;0.98;;;;;;;3.37;100.00;98287.19;4965212;28;20262;-81
2021/12/27 05:07:32;;;;;;;0.95;0.82;;;;;;;3.38;100.00;98275.53;4939461;28;20026;-80
2021/12/27 05:09:58;;;;;;;7.38;1.50;;;;;;;3.43;100.00;98274.97;4967014;28;20037;-80
2021/12/27 05:12:24;;;;;;;1.02;1.02;;;;;;;3.49;100.00;98285.66;4938286;28;20030;-80
2021/12/27 05:14:50;;;;;;;0.57;0.57;;;;;;;3.49;100.00;98266.22;4932497;28;20085;-80
2021/12/27 05:17:15;;;;;;;0.60;0.60;;;;;;;3.58;100.00;98270.41;4969286;28;20019;-80
2021/12/27 05:19:41;;;;;;;6.63;1.17;;;;;;;3.61;100.00;98261.22;4951937;28;20035;-81
2021/12/27 05:22:07;;;;;;;1.88;0.82;;;;;;;3.70;100.00;98260.06;4944333;28;20685;-81
2021/12/27 05:24:33;;;;;;;0.50;0.50;;;;;;;3.71;100.00;98256.41;4948087;28;20062;-80
2021/12/27 05:26:58;;;;;;;0.50;0.50;;;;;;;3.77;100.00;98255.63;4962031;28;20117;-80
2021/12/27 05:29:24;;;;;;;0.60;0.60;;;;;;;3.82;100.00;98261.19;4947833;28;20040;-81
2021/12/27 05:31:50;;;;;;;0.80;0.80;;;;;;;3.87;100.00;98260.59;4964575;28;20417;-81
2021/12/27 05:34:16;;;;;;;2.70;0.90;;;;;;;3.88;100.00;98252.41;4940188;28;20447;-80
2021/12/27 05:36:43;;;;;;;0.55;0.55;;;;;;;3.84;100.00;98240.56;4930196;28;20122;-80
2021/12/27 05:39:10;;;;;;;1.92;1.65;;;;;;;3.91;100.00;98246.72;4961213;28;20029;-80
2021/12/27 05:41:36;;;;;;;0.80;0.77;;;;;;;3.91;100.00;98246.72;4952858;28;20097;-80
2021/12/27 05:44:02;;;;;;;2.20;1.13;;;;;;;3.93;100.00;98242.03;4948974;28;20031;-81
2021/12/27 05:46:27;;;;;;;1.42;0.85;;;;;;;4.00;100.00;98250.06;4952482;28;20391;-81
2021/12/27 05:48:53;;;;;;;2.45;1.10;;;;;;;4.06;100.00;98248.44;4931154;28;20039;-81
2021/12/27 05:51:19;;;;;;;0.80;0.80;;;;;;;4.06;100.00;98243.94;4946717;28;20523;-80
2021/12/27 05:53:44;;;;;;;0.60;0.60;;;;;;;4.12;100.00;98243.16;4947305;28;20412;-80
2021/12/27 05:56:10;;;;;;;1.90;1.80;;;;;;;4.09;100.00;98235.56;4931649;28;20035;-80
2021/12/27 05:58:35;;;;;;;2.92;1.77;;;;;;;4.19;100.00;98248.53;4945182;28;20305;-80
2021/12/27 06:01:01;;;;;;;1.50;1.40;;;;;;;4.20;100.00;98250.16;4953362;28;20492;-80
2021/12/27 06:03:27;;;;;;;1.10;0.80;;;;;;;4.15;100.00;98234.81;4948876;28;20086;-81
2021/12/27 06:05:52;;;;;;;0.65;0.65;;;;;;;4.22;100.00;98247.31;4942187;28;20465;-81
2021/12/27 06:08:18;;;;;;;0.55;0.55;;;;;;;4.17;100.00;98231.94;4956620;28;20038;-80
2021/12/27 06:10:44;;;;;;;4.05;1.95;;;;;;;4.25;100.00;98242.41;4965082;28;20052;-80
2021/12/27 06:13:09;;;;;;;1.73;1.30;;;;;;;4.23;100.00;98243.63;4966098;28;20531;-80
2021/12/27 06:15:35;;;;;;;0.55;0.55;;;;;;;4.23;100.00;98236.47;4938044;28;20439;-80
2021/12/27 06:18:01;;;;;;;1.65;0.82;;;;;;;4.24;100.00;98229.31;4952812;28;20069;-80
2021/12/27 06:20:26;;;;;;;2.25;2.05;;;;;;;4.24;100.00;98216.84;4966494;28;20035;-80
2021/12/27 06:22:55;;;;;;;2.05;1.15;;;;;;;4.28;100.00;98218.06;4970028;28;20038;-81
2021/12/27 06:25:21;;;;;;;1.65;0.70;;;;;;;4.09;100.00;98170.94;4972485;28;20062;-81
2021/12/27 06:27:47;;;;;;;0.80;0.80;;;;;;;4.29;100.00;98197.63;4948092;28;20057;-81
2021/12/27 06:30:14;;;;;;;3.28;1.60;;;;;;;4.22;100.00;98194.94;4944268;28;20077;-81
2021/12/27 06:32:40;;;;;;;3.28;1.42;;;;;;;4.30;100.00;98196.59;4934537;28;20038;-81
2021/12/27 06:35:07;;;;;;;3.45;1.67;;;;;;;4.33;100.00;98186.38;4952436;28;20101;-81
2021/12/27 06:37:33;;;;;;;0.68;0.68;;;;;;;4.35;100.00;98184.34;4954324;28;20364;-80
2021/12/27 06:39:59;;;;;;;1.25;1.25;;;;;;;4.37;100.00;98187.63;4952950;28;20049;-80
2021/12/27 06:42:25;;;;;;;0.85;0.75;;;;;;;4.27;100.00;98159.78;4969667;28;20026;-80
2021/12/27 06:44:51;;;;;;;3.80;2.03;;;;;;;4.34;100.00;98166.75;4953483;28;20108;-81
2021/12/27 06:47:17;;;;;;;0.52;0.52;;;;;;;4.36;100.00;98163.88;4936769;28;20031;-80
2021/12/27 06:49:43;;;;;;;0.98;0.95;;;;;;;4.42;100.00;98160.44;4968902;28;20046;-82
2021/12/27 06:52:11;;;;;;;1.85;1.02;;;;;;;4.44;100.00;98154.91;4950565;28;20035;-81
2021/12/27 06:54:38;;;;;;;2.13;2.03;;;;;;;4.50;100.00;98151.44;4965377;28;20053;-80
2021/12/27 06:57:04;;;;;;;2.22;1.42;;;;;;;4.57;100.00;98165.59;4953240;28;20031;-81
2021/12/27 06:59:29;;;;;;;1.58;1.02;;;;;;;4.60;100.00;98170.50;4936635;28;20031;-80
2021/12/27 07:01:56;;;;;;;0.52;0.52;;;;;;;4.66;100.00;98174.19;4952158;28;20031;-81
2021/12/27 07:04:22;;;;;;;0.65;0.50;;;;;;;4.56;100.00;98163.94;4937096;28;20520;-80
2021/12/27 07:06:47;;;;;;;2.00;1.10;;;;;;;4.62;100.00;98173.78;4939245;28;20121;-81
2021/12/27 07:09:13;;;;;;;1.40;1.10;;;;;;;4.65;100.00;98172.56;4971813;28;20038;-80
2021/12/27 07:11:41;;;;;;;0.63;0.63;;;;;;;4.65;100.00;98177.88;4949916;28;20118;-80
2021/12/27 07:14:06;;;;;;;0.98;0.90;;;;;;;4.55;100.00;98173.78;4968234;28;20026;-80
2021/12/27 07:16:33;;;;;;;1.60;0.73;;;;;;;4.56;100.00;98169.28;4954109;28;20062;-81
2021/12/27 07:19:04;;;;;;;1.38;1.17;;;;;;;4.67;100.00;98162.53;4938132;28;20125;-80
2021/12/27 07:21:30;;;;;;;1.45;0.50;;;;;;;4.81;100.00;98173.00;4966130;28;20038;-81
2021/12/27 07:23:56;;;;;;;0.55;0.55;;;;;;;4.87;100.00;98167.88;4939286;28;20042;-80
2021/12/27 07:26:24;;;;;;;1.48;1.00;;;;;;;4.96;100.00;98166.69;4939929;28;20424;-80
2021/12/27 07:28:50;;;;;;;1.33;0.93;;;;;;;4.96;100.00;98159.50;4937369;28;20196;-82
2021/12/27 07:31:16;;;;;;;0.73;0.73;;;;;;;5.00;100.00;98155.44;4949632;28;20525;-80
2021/12/27 07:33:41;;;;;;;0.93;0.85;;;;;;;5.04;100.00;98147.84;4964423;28;20026;-80
2021/12/27 07:36:10;;;;;;;2.47;1.10;;;;;;;5.11;100.00;98151.34;4950774;29;20039;-80
2021/12/27 07:38:37;;;;;;;0.65;0.65;;;;;;;5.16;100.00;98140.06;4968002;28;20030;-82
2021/12/27 07:41:10;;;;;;;2.42;0.90;;;;;;;5.20;100.00;98143.97;4950501;28;20460;-80
2021/12/27 07:43:39;;;;;;;1.85;1.25;;;;;;;5.16;100.00;98135.56;4944595;28;20038;-80
2021/12/27 07:46:04;;;;;;;0.95;0.93;;;;;;;5.32;100.00;98150.31;4937061;28;20049;-81
2021/12/27 07:48:30;;;;;;;1.83;1.10;;;;;;;5.33;100.00;98130.63;4968874;28;20027;-81
2021/12/27 07:50:57;;;;;;;2.00;1.60;;;;;;;5.43;100.00;98141.69;4970953;28;20030;-80
2021/12/27 07:53:22;;;;;;;1.35;1.10;;;;;;;5.37;100.00;98134.53;4969540;28;20101;-81
2021/12/27 07:55:48;;;;;;;0.63;0.63;;;;;;;5.48;100.00;98143.75;4969001;28;20497;-81
2021/12/27 07:58:16;;;;;;;0.90;0.80;;;;;;;5.50;100.00;98155.84;4971117;28;20041;-81
2021/12/27 08:00:42;;;;;;;1.20;0.70;;;;;;;5.42;100.00;98131.22;4968633;28;20034;-82
2021/12/27 08:03:08;;;;;;;0.63;0.63;;;;;;;5.47;100.00;98144.75;4970656;28;20031;-80
2021/12/27 08:05:34;;;;;;;0.73;0.60;;;;;;;5.48;100.00;98149.06;4969330;28;20038;-81
2021/12/27 08:07:59;;;;;;;1.02;0.93;;;;;;;5.27;100.00;98134.94;4968560;28;20034;-81
2021/12/27 08:10:25;;;;;;;0.95;0.70;;;;;;;5.37;100.00;98147.00;4968890;28;20030;-81
2021/12/27 08:12:51;;;;;;;0.73;0.73;;;;;;;5.24;100.00;98146.00;4952214;28;20461;-80
2021/12/27 08:15:16;;;;;;;0.40;0.40;;;;;;;5.07;100.00;98137.59;4967880;28;20384;-80
2021/12/27 08:17:42;;;;;;;2.45;1.17;;;;;;;4.99;100.00;98137.78;4967324;28;20086;-80
2021/12/27 08:20:09;;;;;;;0.85;0.80;;;;;;;4.90;100.00;98127.56;4953214;28;20272;-80
2021/12/27 08:22:35;;;;;;;2.40;1.40;;;;;;;4.82;100.00;98129.41;4952965;28;20493;-80
2021/12/27 08:25:00;;;;;;;1.17;0.88;;;;;;;4.78;100.00;98119.34;4965185;28;20663;-80
2021/12/27 08:27:28;;;;;;;0.80;0.80;;;;;;;4.83;100.00;98128.38;4951191;28;20162;-82
2021/12/27 08:29:54;;;;;;;0.68;0.68;;;;;;;4.71;100.00;98108.72;4967712;28;20069;-81
2021/12/27 08:32:20;;;;;;;1.77;1.10;;;;;;;4.84;100.00;98118.53;4932666;28;20038;-80
2021/12/27 08:34:46;;;;;;;3.78;0.93;;;;;;;4.88;100.00;98130.44;4927711;28;20034;-80
2021/12/27 08:37:11;;;;;;;0.75;0.75;;;;;;;4.95;100.00;98122.41;4950642;28;20031;-81
2021/12/27 08:39:38;;;;;;;0.60;0.60;;;;;;;5.15;100.00;98127.75;4966939;28;20134;-80
2021/12/27 08:42:07;;;;;;;0.68;0.68;;;;;;;5.26;100.00;98135.94;4962924;28;20054;-80
2021/12/27 08:44:36;;;;;;;1.08;0.75;;;;;;;5.33;100.00;98124.47;4966719;28;20034;-81
2021/12/27 08:47:03;;;;;;;0.73;0.73;;;;;;;5.30;100.00;98117.72;4936568;28;20405;-80
2021/12/27 08:49:28;;;;;;;2.42;1.20;;;;;;;5.14;100.00;98108.31;4970245;28;20125;-81
2021/12/27 08:51:54;;;;;;;1.55;0.73;;;;;;;5.37;100.00;98128.34;4971320;28;20549;-81
2021/12/27 08:54:20;;;;;;;2.10;1.48;;;;;;;5.34;100.00;98107.47;4937268;28;20031;-80
2021/12/27 08:56:46;;;;;;;0.77;0.77;;;;;;;5.58;100.00;98133.44;4936170;28;20031;-81
2021/12/27 08:59:11;;;;;;;3.60;0.93;;;;;;;5.59;100.00;98132.44;4953597;28;20473;-81
2021/12/27 09:01:37;;;;;;;1.55;1.23;;;;;;;5.52;100.00;98120.97;4937719;28;20074;-80
2021/12/27 09:04:04;;;;;;;4.88;1.00;;;;;;;5.57;100.00;98117.69;4958569;28;20023;-80
2021/12/27 09:06:33;;;;;;;2.42;0.95;;;;;;;5.56;100.00;98116.88;4966057;28;20061;-80
2021/12/27 09:08:59;;;;;;;4.20;2.40;;;;;;;5.56;100.00;98116.88;4968943;28;20117;-80
2021/12/27 09:11:26;;;;;;;0.65;0.60;;;;;;;5.55;100.00;98120.53;4969812;28;20019;-80
2021/12/27 09:13:52;;;;;;;0.68;0.68;;;;;;;5.62;100.00;98125.88;4948894;28;20043;-81
2021/12/27 09:16:18;;;;;;;2.90;1.52;;;;;;;5.55;100.00;98112.53;4952816;28;20035;-81
2021/12/27 09:18:44;;;;;;;1.67;1.10;;;;;;;5.62;100.00;98126.69;4970129;28;20031;-80
2021/12/27 09:21:10;;;;;;;5.35;1.52;;;;;;;5.66;100.00;98127.06;4971180;28;20050;-80
2021/12/27 09:23:36;;;;;;;1.75;1.00;;;;;;;5.65;100.00;98123.59;4952447;28;20370;-80
2021/12/27 09:26:02;;;;;;;5.97;2.25;;;;;;;5.58;100.00;98116.63;4951271;28;20049;-81
2021/12/27 09:28:30;;;;;;;4.30;2.17;;;;;;;5.53;100.00;98111.97;4981212;28;20041;-81
2021/12/27 09:30:57;;;;;;;1.52;1.20;;;;;;;5.44;100.00;98113.19;4933537;28;20381;-81
2021/12/27 09:33:23;;;;;;;2.78;1.40;;;;;;;5.41;100.00;98118.94;4951510;28;20113;-81
2021/12/27 09:35:48;;;;;;;2.88;1.60;;;;;;;5.35;100.00;98119.78;4949551;28;20510;-80
2021/12/27 09:38:14;;;;;;;0.82;0.65;;;;;;;5.32;100.00;98118.34;4982346;28;20033;-81
2021/12/27 09:40:40;;;;;;;1.42;1.08;;;;;;;5.29;100.00;98127.56;4961572;28;20039;-81
2021/12/27 09:43:07;;;;;;;1.10;1.00;;;;;;;5.28;100.00;98120.59;4964781;28;20027;-80
2021/12/27 09:45:33;;;;;;;1.08;0.77;;;;;;;5.28;100.00;98133.09;4935099;28;20494;-81
2021/12/27 09:47:59;;;;;;;0.60;0.60;;;;;;;5.20;100.00;98120.78;4968900;28;20023;-80
2021/12/27 09:50:45;;;;;;;1.40;1.15;;;;;;;5.23;100.00;98116.91;4956529;28;20523;-81
2021/12/27 09:53:12;;;;;;;4.93;1.10;;;;;;;5.25;100.00;98123.66;4951565;28;20480;-81
2021/12/27 09:55:38;;;;;;;1.70;1.20;;;;;;;5.28;100.00;98107.25;4940053;28;20031;-81
2021/12/27 09:58:05;;;;;;;0.80;0.80;;;;;;;5.31;100.00;98116.69;4977366;28;20116;-81
2021/12/27 10:00:34;;;;;;;1.02;0.75;;;;;;;5.32;100.00;98109.50;4969705;28;20472;-80
2021/12/27 10:03:02;;;;;;;0.88;0.80;;;;;;;5.32;100.00;98096.19;4951380;28;20049;-80
2021/12/27 10:05:30;;;;;;;0.40;0.40;;;;;;;5.27;100.00;98086.16;4956404;28;20031;-80
2021/12/27 10:08:06;;;;;;;2.25;0.85;;;;;;;5.29;100.00;98074.28;4953699;28;20027;-81
2021/12/27 10:10:34;;;;;;;0.80;0.80;;;;;;;5.46;100.00;98095.97;4952830;28;20022;-81
2021/12/27 10:13:01;;;;;;;12.10;2.72;;;;;;;5.53;100.00;98090.63;4939823;28;20046;-80
2021/12/27 10:15:36;;;;;;;2.35;1.30;;;;;;;5.62;100.00;98084.03;4954350;28;20098;-81
2021/12/27 10:18:10;;;;;;;4.50;2.22;;;;;;;5.65;100.00;98093.47;4956328;28;20420;-81
2021/12/27 10:20:36;;;;;;;1.30;0.90;;;;;;;5.72;100.00;98073.75;4948287;28;20126;-81
2021/12/27 10:23:02;;;;;;;1.95;1.27;;;;;;;5.70;100.00;98067.81;4952708;28;20631;-81
2021/12/27 10:25:28;;;;;;;6.88;2.50;;;;;;;5.82;100.00;98081.31;4954961;28;20034;-81
2021/12/27 10:27:56;;;;;;;2.38;1.25;;;;;;;5.90;100.00;98080.22;4956493;28;20452;-80
2021/12/27 10:30:25;;;;;;;4.72;2.03;;;;;;;5.87;100.00;98070.81;4957296;28;20026;-81
2021/12/27 10:33:14;;;;;;;2.13;1.50;;;;;;;6.01;100.00;98081.47;4972584;28;20038;-81
2021/12/27 10:35:40;;;;;;;0.57;0.57;;;;;;;6.04;100.00;98076.53;4955431;28;20465;-80
2021/12/27 10:38:23;;;;;;;1.20;0.88;;;;;;;6.30;100.00;98090.78;4973004;28;20062;-82
2021/12/27 10:40:59;;;;;;;;;;;;;;;6.58;100.00;98093.06;4942275;28;20027;-83
2021/12/27 10:43:42;;;;;;;1.00;0.90;;;;;;;7.13;100.00;98063.06;4973397;28;19922;-83
2021/12/27 10:46:12;;;;;;;2.90;1.40;;;;;;;7.54;100.00;98059.78;4974008;28;20093;-84
2021/12/27 10:48:44;;;;;;;1.85;0.85;;;;;;;7.61;100.00;98081.91;4973493;28;20422;-83
2021/12/27 10:51:10;;;;;;;1.55;1.10;;;;;;;7.45;100.00;98058.41;4954521;28;20043;-83
2021/12/27 10:53:51;;;;;;;5.07;1.60;;;;;;;7.60;100.00;98079.47;4956764;28;20346;-83
2021/12/27 10:56:20;;;;;;;2.88;1.60;;;;;;;7.98;100.00;98071.19;4972575;28;20030;-83
2021/12/27 10:58:55;;;;;;;1.73;1.35;;;;;;;8.10;100.00;98066.72;4956262;28;20125;-83
2021/12/27 11:01:22;;;;;;;1.00;0.95;;;;;;;8.07;100.00;98063.66;4957237;28;20141;-82
2021/12/27 11:03:50;;;;;;;1.40;1.00;;;;;;;8.25;100.00;98052.91;4956954;28;20030;-83
2021/12/27 11:06:25;;;;;;;4.40;2.10;;;;;;;7.87;100.00;98031.81;4957580;28;20480;-83
2021/12/27 11:08:54;;;;;;;4.18;1.60;;;;;;;7.75;100.00;98042.44;4956370;28;20740;-84
2021/12/27 11:11:22;;;;;;;2.00;1.25;;;;;;;7.62;100.00;98031.91;4953732;28;20071;-83
2021/12/27 11:13:50;;;;;;;3.00;1.77;;;;;;;7.61;100.00;98038.28;4959071;28;20114;-83
2021/12/27 11:16:15;;;;;;;1.80;1.42;;;;;;;7.59;100.00;98035.00;4973069;28;20034;-83
2021/12/27 11:18:41;;;;;;;3.72;1.30;;;;;;;7.42;100.00;98000.06;4957335;28;20393;-83
2021/12/27 11:21:17;;;;;;;4.13;2.10;;;;;;;7.63;100.00;98030.88;4956484;28;20039;-83
2021/12/27 11:23:47;;;;;;;3.13;1.67;;;;;;;7.63;100.00;98030.88;4973265;28;20602;-83
2021/12/27 11:26:15;;;;;;;2.35;1.17;;;;;;;7.61;100.00;98031.09;4956728;28;20026;-80
2021/12/27 11:28:42;;;;;;;4.65;3.55;;;;;;;7.64;100.00;98027.16;4950408;28;20174;-78
2021/12/27 11:31:24;;;;;;;5.38;1.90;;;;;;;7.67;100.00;98000.78;4936761;28;20552;-78
2021/12/27 11:34:08;;;;;;;5.28;2.80;;;;;;;7.64;100.00;98006.56;4953545;28;20044;-78
2021/12/27 11:36:58;;;;;;;4.18;1.65;;;;;;;7.74;100.00;97994.53;4972071;28;20643;-78